sensor_id;sensor_type;location;lat;lon;timestamp;pressure;altitude;pressure_sealevel;temperature;humidity
75945;BME280;64628;50.104;14.614;2023-03-23T00:02:24;98060.56;;;13.46;36.29
75945;BME280;64628;50.104;14.614;2023-03-23T00:04:50;98057.09;;;13.31;36.16
75945;BME280;64628;50.104;14.614;2023-03-23T00:07:15;98058.95;;;13.03;36.22
75945;BME280;64628;50.104;14.614;2023-03-23T00:09:41;98056.39;;;13.27;36.13
75945;BME280;64628;50.104;14.614;2023-03-23T00:12:07;98057.17;;;13.19;36.27
75945;BME280;64628;50.104;14.614;2023-03-23T00:14:32;98061.29;;;13.38;36.52
75945;BME280;64628;50.104;14.614;2023-03-23T00:16:56;98057.97;;;13.37;36.44
75945;BME280;64628;50.104;14.614;2023-03-23T00:19:22;98058.13;;;13.29;36.79
75945;BME280;64628;50.104;14.614;2023-03-23T00:21:47;98055.16;;;13.25;36.72
75945;BME280;64628;50.104;14.614;2023-03-23T00:24:14;98052.28;;;13.35;37.20
75945;BME280;64628;50.104;14.614;2023-03-23T00:26:40;98054.33;;;13.00;37.19
75945;BME280;64628;50.104;14.614;2023-03-23T00:29:04;98056.72;;;13.13;37.32
75945;BME280;64628;50.104;14.614;2023-03-23T00:31:30;98054.33;;;13.05;37.43
75945;BME280;64628;50.104;14.614;2023-03-23T00:33:54;98054.19;;;12.71;37.49
75945;BME280;64628;50.104;14.614;2023-03-23T00:36:20;98054.98;;;12.86;37.91
75945;BME280;64628;50.104;14.614;2023-03-23T00:38:46;98055.65;;;12.76;38.05
75945;BME280;64628;50.104;14.614;2023-03-23T00:41:10;98056.73;;;12.49;38.01
75945;BME280;64628;50.104;14.614;2023-03-23T00:43:36;98052.96;;;12.62;38.20
75945;BME280;64628;50.104;14.614;2023-03-23T00:46:03;98050.47;;;12.84;38.02
75945;BME280;64628;50.104;14.614;2023-03-23T00:48:28;98051.24;;;12.45;37.85
75945;BME280;64628;50.104;14.614;2023-03-23T00:50:53;98045.43;;;12.74;37.79
75945;BME280;64628;50.104;14.614;2023-03-23T00:53:19;98039.44;;;12.78;37.86
75945;BME280;64628;50.104;14.614;2023-03-23T00:55:44;98034.84;;;12.55;37.75
75945;BME280;64628;50.104;14.614;2023-03-23T00:58:10;98030.44;;;12.55;38.09
75945;BME280;64628;50.104;14.614;2023-03-23T01:00:34;98022.68;;;12.67;37.61
75945;BME280;64628;50.104;14.614;2023-03-23T01:02:59;98018.74;;;12.67;37.78
75945;BME280;64628;50.104;14.614;2023-03-23T01:05:25;98020.46;;;12.85;37.87
75945;BME280;64628;50.104;14.614;2023-03-23T01:07:50;98020.88;;;12.73;37.57
75945;BME280;64628;50.104;14.614;2023-03-23T01:10:16;98019.83;;;12.76;37.58
75945;BME280;64628;50.104;14.614;2023-03-23T01:12:42;98016.65;;;13.06;37.47
75945;BME280;64628;50.104;14.614;2023-03-23T01:15:07;98015.59;;;12.78;37.45
75945;BME280;64628;50.104;14.614;2023-03-23T01:17:32;98012.73;;;12.68;37.39
75945;BME280;64628;50.104;14.614;2023-03-23T01:19:57;98010.86;;;12.99;37.22
75945;BME280;64628;50.104;14.614;2023-03-23T01:22:22;98008.58;;;12.59;37.08
75945;BME280;64628;50.104;14.614;2023-03-23T01:24:48;98008.13;;;13.17;36.97
75945;BME280;64628;50.104;14.614;2023-03-23T01:27:13;98005.67;;;13.19;36.94
75945;BME280;64628;50.104;14.614;2023-03-23T01:29:38;98005.86;;;12.83;36.75
75945;BME280;64628;50.104;14.614;2023-03-23T01:32:04;98005.26;;;12.90;36.75
75945;BME280;64628;50.104;14.614;2023-03-23T01:34:29;98006.60;;;13.36;36.83
75945;BME280;64628;50.104;14.614;2023-03-23T01:36:55;98003.31;;;13.24;37.10
75945;BME280;64628;50.104;14.614;2023-03-23T01:39:21;97998.69;;;13.14;37.26
75945;BME280;64628;50.104;14.614;2023-03-23T01:41:46;98000.26;;;13.45;37.00
75945;BME280;64628;50.104;14.614;2023-03-23T01:46:36;97995.15;;;12.93;37.50
75945;BME280;64628;50.104;14.614;2023-03-23T01:49:05;97992.22;;;13.10;37.55
75945;BME280;64628;50.104;14.614;2023-03-23T01:51:27;97988.38;;;12.69;37.87
75945;BME280;64628;50.104;14.614;2023-03-23T01:53:55;97988.99;;;12.55;37.96
75945;BME280;64628;50.104;14.614;2023-03-23T01:56:21;97987.99;;;12.71;38.01
75945;BME280;64628;50.104;14.614;2023-03-23T01:58:44;97989.93;;;12.65;38.06
75945;BME280;64628;50.104;14.614;2023-03-23T02:01:13;97988.33;;;12.55;38.35
75945;BME280;64628;50.104;14.614;2023-03-23T02:03:37;97985.46;;;12.48;38.30
75945;BME280;64628;50.104;14.614;2023-03-23T02:06:01;97986.07;;;12.13;38.46
75945;BME280;64628;50.104;14.614;2023-03-23T02:08:27;97984.05;;;12.30;38.54
75945;BME280;64628;50.104;14.614;2023-03-23T02:10:51;97982.93;;;12.44;38.44
75945;BME280;64628;50.104;14.614;2023-03-23T02:13:16;97980.22;;;12.49;38.43
75945;BME280;64628;50.104;14.614;2023-03-23T02:15:48;97980.91;;;12.75;38.44
75945;BME280;64628;50.104;14.614;2023-03-23T02:18:12;97978.10;;;12.75;38.46
75945;BME280;64628;50.104;14.614;2023-03-23T02:20:44;97975.83;;;12.55;38.34
75945;BME280;64628;50.104;14.614;2023-03-23T02:23:12;97975.41;;;12.70;38.15
75945;BME280;64628;50.104;14.614;2023-03-23T02:25:35;97974.76;;;12.79;38.02
75945;BME280;64628;50.104;14.614;2023-03-23T02:30:22;97969.46;;;12.83;38.05
75945;BME280;64628;50.104;14.614;2023-03-23T02:35:08;97965.40;;;12.83;38.47
75945;BME280;64628;50.104;14.614;2023-03-23T02:37:34;97961.29;;;12.61;38.33
75945;BME280;64628;50.104;14.614;2023-03-23T02:39:59;97962.17;;;12.64;38.39
75945;BME280;64628;50.104;14.614;2023-03-23T02:42:24;97962.20;;;12.86;38.66
75945;BME280;64628;50.104;14.614;2023-03-23T02:44:47;97963.35;;;12.92;38.22
75945;BME280;64628;50.104;14.614;2023-03-23T02:47:16;97961.95;;;12.61;38.29
75945;BME280;64628;50.104;14.614;2023-03-23T02:49:39;97962.09;;;12.66;38.18
75945;BME280;64628;50.104;14.614;2023-03-23T02:52:07;97960.24;;;12.74;37.97
75945;BME280;64628;50.104;14.614;2023-03-23T02:54:28;97958.81;;;12.83;37.91
75945;BME280;64628;50.104;14.614;2023-03-23T02:56:54;97959.97;;;12.71;37.88
75945;BME280;64628;50.104;14.614;2023-03-23T02:59:18;97958.85;;;13.06;37.51
75945;BME280;64628;50.104;14.614;2023-03-23T03:01:52;97954.38;;;12.85;37.60
75945;BME280;64628;50.104;14.614;2023-03-23T03:04:12;97957.92;;;13.15;37.38
75945;BME280;64628;50.104;14.614;2023-03-23T03:06:38;97960.78;;;13.27;37.12
75945;BME280;64628;50.104;14.614;2023-03-23T03:09:04;97959.06;;;12.95;37.27
75945;BME280;64628;50.104;14.614;2023-03-23T03:11:25;97961.70;;;13.07;37.10
75945;BME280;64628;50.104;14.614;2023-03-23T03:13:53;97963.75;;;13.63;36.94
75945;BME280;64628;50.104;14.614;2023-03-23T03:16:23;97960.69;;;13.24;36.76
75945;BME280;64628;50.104;14.614;2023-03-23T03:18:46;97959.25;;;13.54;36.62
75945;BME280;64628;50.104;14.614;2023-03-23T03:21:09;97956.85;;;13.58;36.54
75945;BME280;64628;50.104;14.614;2023-03-23T03:23:33;97960.68;;;13.76;36.41
75945;BME280;64628;50.104;14.614;2023-03-23T03:25:58;97962.82;;;13.51;36.41
75945;BME280;64628;50.104;14.614;2023-03-23T03:28:24;97962.02;;;13.95;36.23
75945;BME280;64628;50.104;14.614;2023-03-23T03:30:53;97957.69;;;13.85;36.01
75945;BME280;64628;50.104;14.614;2023-03-23T03:33:14;97954.77;;;14.03;36.07
75945;BME280;64628;50.104;14.614;2023-03-23T03:35:42;97956.41;;;13.55;36.38
75945;BME280;64628;50.104;14.614;2023-03-23T03:38:08;97962.14;;;13.88;36.39
75945;BME280;64628;50.104;14.614;2023-03-23T03:40:31;97959.69;;;14.11;36.04
75945;BME280;64628;50.104;14.614;2023-03-23T03:42:56;97960.01;;;13.71;35.85
75945;BME280;64628;50.104;14.614;2023-03-23T03:45:22;97956.38;;;13.83;35.60
75945;BME280;64628;50.104;14.614;2023-03-23T03:47:47;97957.45;;;13.90;35.57
75945;BME280;64628;50.104;14.614;2023-03-23T03:50:13;97961.42;;;13.62;35.59
75945;BME280;64628;50.104;14.614;2023-03-23T03:52:39;97956.87;;;14.03;35.36
75945;BME280;64628;50.104;14.614;2023-03-23T03:55:05;97962.85;;;14.05;35.21
75945;BME280;64628;50.104;14.614;2023-03-23T03:57:29;97963.46;;;14.15;35.09
75945;BME280;64628;50.104;14.614;2023-03-23T03:59:54;97968.56;;;14.08;35.27
75945;BME280;64628;50.104;14.614;2023-03-23T04:02:20;97968.61;;;14.01;35.43
75945;BME280;64628;50.104;14.614;2023-03-23T04:04:45;97968.48;;;14.12;35.24
75945;BME280;64628;50.104;14.614;2023-03-23T04:07:10;97969.47;;;14.19;35.12
75945;BME280;64628;50.104;14.614;2023-03-23T04:09:36;97968.30;;;13.95;35.35
75945;BME280;64628;50.104;14.614;2023-03-23T04:12:02;97969.95;;;14.00;35.40
75945;BME280;64628;50.104;14.614;2023-03-23T04:14:28;97967.64;;;13.87;35.27
75945;BME280;64628;50.104;14.614;2023-03-23T04:16:53;97960.22;;;14.31;35.27
75945;BME280;64628;50.104;14.614;2023-03-23T04:19:18;97958.93;;;14.04;35.31
75945;BME280;64628;50.104;14.614;2023-03-23T04:21:44;97960.12;;;14.11;35.27
75945;BME280;64628;50.104;14.614;2023-03-23T04:24:09;97958.84;;;13.88;35.19
75945;BME280;64628;50.104;14.614;2023-03-23T04:26:35;97956.75;;;13.97;35.34
75945;BME280;64628;50.104;14.614;2023-03-23T04:29:00;97957.42;;;14.13;35.22
75945;BME280;64628;50.104;14.614;2023-03-23T04:31:26;97958.21;;;14.15;35.18
75945;BME280;64628;50.104;14.614;2023-03-23T04:33:52;97958.75;;;14.17;35.14
75945;BME280;64628;50.104;14.614;2023-03-23T04:36:17;97957.46;;;14.02;35.27
75945;BME280;64628;50.104;14.614;2023-03-23T04:38:42;97960.69;;;13.98;35.31
75945;BME280;64628;50.104;14.614;2023-03-23T04:41:08;97958.86;;;13.83;35.35
75945;BME280;64628;50.104;14.614;2023-03-23T04:43:33;97958.59;;;13.74;35.42
75945;BME280;64628;50.104;14.614;2023-03-23T04:45:59;97963.67;;;13.88;35.15
75945;BME280;64628;50.104;14.614;2023-03-23T04:48:25;97960.94;;;14.02;34.94
75945;BME280;64628;50.104;14.614;2023-03-23T04:50:50;97955.59;;;14.06;35.20
75945;BME280;64628;50.104;14.614;2023-03-23T04:53:15;97955.01;;;13.82;35.01
75945;BME280;64628;50.104;14.614;2023-03-23T04:55:40;97951.93;;;13.65;35.29
75945;BME280;64628;50.104;14.614;2023-03-23T04:58:07;97956.63;;;13.98;34.91
75945;BME280;64628;50.104;14.614;2023-03-23T05:00:31;97951.76;;;13.73;35.01
75945;BME280;64628;50.104;14.614;2023-03-23T05:02:57;97951.61;;;13.47;35.25
75945;BME280;64628;50.104;14.614;2023-03-23T05:05:23;97947.57;;;13.76;35.21
75945;BME280;64628;50.104;14.614;2023-03-23T05:07:47;97953.19;;;13.77;34.84
75945;BME280;64628;50.104;14.614;2023-03-23T05:10:13;97957.83;;;13.98;34.81
75945;BME280;64628;50.104;14.614;2023-03-23T05:12:39;97957.69;;;13.59;35.07
75945;BME280;64628;50.104;14.614;2023-03-23T05:15:06;97961.22;;;13.71;34.87
75945;BME280;64628;50.104;14.614;2023-03-23T05:17:30;97968.33;;;13.80;34.81
75945;BME280;64628;50.104;14.614;2023-03-23T05:19:55;97969.13;;;14.10;34.69
75945;BME280;64628;50.104;14.614;2023-03-23T05:22:20;97974.83;;;14.13;34.75
75945;BME280;64628;50.104;14.614;2023-03-23T05:24:46;97969.96;;;14.09;34.40
75945;BME280;64628;50.104;14.614;2023-03-23T05:27:11;97963.83;;;14.18;34.28
75945;BME280;64628;50.104;14.614;2023-03-23T05:29:37;97965.04;;;13.90;34.59
75945;BME280;64628;50.104;14.614;2023-03-23T05:34:31;97956.66;;;13.87;34.69
75945;BME280;64628;50.104;14.614;2023-03-23T05:36:53;97959.17;;;13.93;35.03
75945;BME280;64628;50.104;14.614;2023-03-23T05:39:19;97960.18;;;13.82;35.26
75945;BME280;64628;50.104;14.614;2023-03-23T05:41:44;97957.42;;;13.50;36.17
75945;BME280;64628;50.104;14.614;2023-03-23T05:44:10;97955.25;;;13.46;36.26
75945;BME280;64628;50.104;14.614;2023-03-23T05:46:35;97957.65;;;13.58;35.76
75945;BME280;64628;50.104;14.614;2023-03-23T05:49:01;97961.11;;;13.84;35.37
75945;BME280;64628;50.104;14.614;2023-03-23T05:51:26;97961.36;;;13.92;35.39
75945;BME280;64628;50.104;14.614;2023-03-23T05:53:51;97966.16;;;13.94;35.14
75945;BME280;64628;50.104;14.614;2023-03-23T05:56:17;97969.41;;;14.24;34.79
75945;BME280;64628;50.104;14.614;2023-03-23T05:58:43;97974.32;;;14.30;34.74
75945;BME280;64628;50.104;14.614;2023-03-23T06:01:09;97972.23;;;14.26;34.49
75945;BME280;64628;50.104;14.614;2023-03-23T06:03:34;97972.07;;;14.40;34.22
75945;BME280;64628;50.104;14.614;2023-03-23T06:06:00;97969.09;;;14.42;34.27
75945;BME280;64628;50.104;14.614;2023-03-23T06:08:25;97968.77;;;14.45;34.29
75945;BME280;64628;50.104;14.614;2023-03-23T06:10:51;97970.74;;;14.72;34.09
75945;BME280;64628;50.104;14.614;2023-03-23T06:13:16;97972.06;;;14.65;33.85
75945;BME280;64628;50.104;14.614;2023-03-23T06:15:42;97971.24;;;14.93;33.81
75945;BME280;64628;50.104;14.614;2023-03-23T06:18:08;97972.53;;;14.91;33.65
75945;BME280;64628;50.104;14.614;2023-03-23T06:20:33;97973.43;;;14.89;33.60
75945;BME280;64628;50.104;14.614;2023-03-23T06:22:58;97969.58;;;14.97;33.63
75945;BME280;64628;50.104;14.614;2023-03-23T06:25:24;97960.43;;;15.27;33.48
75945;BME280;64628;50.104;14.614;2023-03-23T06:27:49;97962.52;;;15.26;33.33
75945;BME280;64628;50.104;14.614;2023-03-23T06:30:15;97964.02;;;15.03;33.65
75945;BME280;64628;50.104;14.614;2023-03-23T06:32:41;97964.44;;;14.79;34.12
75945;BME280;64628;50.104;14.614;2023-03-23T06:35:06;97965.35;;;14.60;33.81
75945;BME280;64628;50.104;14.614;2023-03-23T06:37:30;97965.70;;;14.45;33.96
75945;BME280;64628;50.104;14.614;2023-03-23T06:39:56;97961.83;;;15.13;33.69
75945;BME280;64628;50.104;14.614;2023-03-23T06:42:22;97961.65;;;14.93;33.36
75945;BME280;64628;50.104;14.614;2023-03-23T06:44:47;97967.07;;;14.92;33.33
75945;BME280;64628;50.104;14.614;2023-03-23T06:47:13;97972.78;;;14.87;33.35
75945;BME280;64628;50.104;14.614;2023-03-23T06:49:38;97972.60;;;14.89;33.31
75945;BME280;64628;50.104;14.614;2023-03-23T06:52:03;97974.01;;;15.12;33.09
75945;BME280;64628;50.104;14.614;2023-03-23T06:54:29;97974.56;;;15.43;33.25
75945;BME280;64628;50.104;14.614;2023-03-23T06:56:54;97975.36;;;15.48;32.57
75945;BME280;64628;50.104;14.614;2023-03-23T06:59:19;97972.47;;;15.64;32.53
75945;BME280;64628;50.104;14.614;2023-03-23T07:01:45;97970.54;;;15.63;32.21
75945;BME280;64628;50.104;14.614;2023-03-23T07:04:11;97974.76;;;15.56;32.49
75945;BME280;64628;50.104;14.614;2023-03-23T07:06:36;97975.37;;;15.87;32.33
75945;BME280;64628;50.104;14.614;2023-03-23T07:09:02;97979.96;;;15.47;32.50
75945;BME280;64628;50.104;14.614;2023-03-23T07:11:27;97977.64;;;15.39;32.52
75945;BME280;64628;50.104;14.614;2023-03-23T07:13:52;97984.55;;;15.61;32.37
75945;BME280;64628;50.104;14.614;2023-03-23T07:16:18;97975.74;;;15.04;33.15
75945;BME280;64628;50.104;14.614;2023-03-23T07:18:43;97974.91;;;15.33;32.71
75945;BME280;64628;50.104;14.614;2023-03-23T07:21:08;97970.02;;;15.75;32.32
75945;BME280;64628;50.104;14.614;2023-03-23T07:23:34;97969.90;;;15.95;31.98
75945;BME280;64628;50.104;14.614;2023-03-23T07:25:58;97975.99;;;15.49;32.40
75945;BME280;64628;50.104;14.614;2023-03-23T07:28:24;97971.81;;;15.86;32.26
75945;BME280;64628;50.104;14.614;2023-03-23T07:30:49;97972.83;;;15.95;32.33
75945;BME280;64628;50.104;14.614;2023-03-23T07:33:14;97969.93;;;15.76;32.27
75945;BME280;64628;50.104;14.614;2023-03-23T07:35:40;97970.50;;;15.98;32.07
75945;BME280;64628;50.104;14.614;2023-03-23T07:38:06;97973.42;;;16.03;31.97
75945;BME280;64628;50.104;14.614;2023-03-23T07:40:30;97972.64;;;15.79;31.77
75945;BME280;64628;50.104;14.614;2023-03-23T07:42:56;97971.58;;;16.12;31.76
75945;BME280;64628;50.104;14.614;2023-03-23T07:45:22;97981.54;;;16.54;31.51
75945;BME280;64628;50.104;14.614;2023-03-23T07:47:46;97979.55;;;16.67;30.83
75945;BME280;64628;50.104;14.614;2023-03-23T07:50:11;97981.78;;;16.74;31.07
75945;BME280;64628;50.104;14.614;2023-03-23T07:52:36;97974.49;;;17.35;30.37
75945;BME280;64628;50.104;14.614;2023-03-23T07:55:02;97977.14;;;17.20;30.03
75945;BME280;64628;50.104;14.614;2023-03-23T07:57:26;97970.84;;;17.08;29.99
75945;BME280;64628;50.104;14.614;2023-03-23T07:59:52;97971.87;;;18.05;29.31
75945;BME280;64628;50.104;14.614;2023-03-23T08:02:17;97975.50;;;17.61;29.11
75945;BME280;64628;50.104;14.614;2023-03-23T08:04:42;97972.83;;;18.24;28.46
75945;BME280;64628;50.104;14.614;2023-03-23T08:07:07;97968.49;;;18.73;28.02
75945;BME280;64628;50.104;14.614;2023-03-23T08:09:32;97967.47;;;18.42;28.20
75945;BME280;64628;50.104;14.614;2023-03-23T08:11:58;97968.85;;;18.39;28.39
75945;BME280;64628;50.104;14.614;2023-03-23T08:14:23;97968.32;;;18.21;29.03
75945;BME280;64628;50.104;14.614;2023-03-23T08:16:49;97965.26;;;17.57;29.34
75945;BME280;64628;50.104;14.614;2023-03-23T08:19:14;97972.30;;;17.36;29.49
75945;BME280;64628;50.104;14.614;2023-03-23T08:21:40;97966.08;;;17.53;29.82
75945;BME280;64628;50.104;14.614;2023-03-23T08:24:05;97966.73;;;17.14;30.01
75945;BME280;64628;50.104;14.614;2023-03-23T08:26:31;97979.19;;;17.63;29.29
75945;BME280;64628;50.104;14.614;2023-03-23T08:28:55;97975.40;;;17.71;29.59
75945;BME280;64628;50.104;14.614;2023-03-23T08:31:20;97977.64;;;17.38;29.40
75945;BME280;64628;50.104;14.614;2023-03-23T08:33:45;97979.49;;;17.75;29.14
75945;BME280;64628;50.104;14.614;2023-03-23T08:36:10;97979.99;;;18.20;28.70
75945;BME280;64628;50.104;14.614;2023-03-23T08:38:35;97973.63;;;18.30;28.38
75945;BME280;64628;50.104;14.614;2023-03-23T08:41:03;97975.56;;;18.25;28.60
75945;BME280;64628;50.104;14.614;2023-03-23T08:43:26;97970.53;;;18.82;28.10
75945;BME280;64628;50.104;14.614;2023-03-23T08:45:51;97971.73;;;19.89;26.83
75945;BME280;64628;50.104;14.614;2023-03-23T08:48:16;97967.05;;;19.96;26.34
75945;BME280;64628;50.104;14.614;2023-03-23T08:50:41;97965.04;;;20.76;25.30
75945;BME280;64628;50.104;14.614;2023-03-23T08:53:06;97955.67;;;22.56;23.59
75945;BME280;64628;50.104;14.614;2023-03-23T08:55:31;97955.76;;;23.70;21.72
75945;BME280;64628;50.104;14.614;2023-03-23T08:57:57;97961.01;;;24.19;20.96
75945;BME280;64628;50.104;14.614;2023-03-23T09:00:23;97954.56;;;24.27;20.89
75945;BME280;64628;50.104;14.614;2023-03-23T09:02:50;97957.97;;;23.85;21.05
75945;BME280;64628;50.104;14.614;2023-03-23T09:05:16;97954.63;;;23.93;21.15
75945;BME280;64628;50.104;14.614;2023-03-23T09:07:42;97941.99;;;24.43;20.95
75945;BME280;64628;50.104;14.614;2023-03-23T09:10:08;97939.64;;;24.46;20.83
75945;BME280;64628;50.104;14.614;2023-03-23T09:12:32;97946.92;;;23.91;21.10
75945;BME280;64628;50.104;14.614;2023-03-23T09:14:58;97935.30;;;24.92;20.58
75945;BME280;64628;50.104;14.614;2023-03-23T09:17:24;97935.43;;;26.75;18.59
75945;BME280;64628;50.104;14.614;2023-03-23T09:19:49;97931.75;;;28.02;17.33
75945;BME280;64628;50.104;14.614;2023-03-23T09:22:15;97931.98;;;28.11;17.05
75945;BME280;64628;50.104;14.614;2023-03-23T09:24:41;97925.62;;;27.51;17.71
75945;BME280;64628;50.104;14.614;2023-03-23T09:27:07;97927.00;;;28.17;17.06
75945;BME280;64628;50.104;14.614;2023-03-23T09:29:32;97930.24;;;28.50;16.47
75945;BME280;64628;50.104;14.614;2023-03-23T09:31:58;97924.24;;;27.11;17.61
75945;BME280;64628;50.104;14.614;2023-03-23T09:34:24;97929.26;;;24.64;19.69
75945;BME280;64628;50.104;14.614;2023-03-23T09:36:50;97932.04;;;23.95;20.90
75945;BME280;64628;50.104;14.614;2023-03-23T09:39:16;97940.37;;;23.68;21.34
75945;BME280;64628;50.104;14.614;2023-03-23T09:41:51;97951.56;;;23.69;21.20
75945;BME280;64628;50.104;14.614;2023-03-23T09:44:09;97945.05;;;23.47;21.56
75945;BME280;64628;50.104;14.614;2023-03-23T09:46:44;97933.46;;;25.06;19.95
75945;BME280;64628;50.104;14.614;2023-03-23T09:49:00;97935.41;;;27.39;17.75
75945;BME280;64628;50.104;14.614;2023-03-23T09:51:35;97941.89;;;29.10;16.07
75945;BME280;64628;50.104;14.614;2023-03-23T09:53:52;97940.50;;;30.50;15.11
75945;BME280;64628;50.104;14.614;2023-03-23T09:56:16;97950.51;;;30.72;14.78
75945;BME280;64628;50.104;14.614;2023-03-23T09:58:46;97943.51;;;29.26;15.62
75945;BME280;64628;50.104;14.614;2023-03-23T10:01:10;97956.14;;;28.35;16.26
75945;BME280;64628;50.104;14.614;2023-03-23T10:03:38;97956.36;;;27.04;17.38
75945;BME280;64628;50.104;14.614;2023-03-23T10:05:59;97948.80;;;25.15;19.40
75945;BME280;64628;50.104;14.614;2023-03-23T10:08:26;97957.86;;;23.75;20.74
75945;BME280;64628;50.104;14.614;2023-03-23T10:10:56;97958.66;;;22.98;21.60
75945;BME280;64628;50.104;14.614;2023-03-23T10:13:22;97961.57;;;22.99;21.93
75945;BME280;64628;50.104;14.614;2023-03-23T10:15:41;97958.71;;;22.84;22.14
75945;BME280;64628;50.104;14.614;2023-03-23T10:18:12;97967.24;;;21.96;22.69
75945;BME280;64628;50.104;14.614;2023-03-23T10:20:37;97963.69;;;22.10;22.91
75945;BME280;64628;50.104;14.614;2023-03-23T10:23:09;97963.44;;;22.04;23.06
75945;BME280;64628;50.104;14.614;2023-03-23T10:25:24;97964.52;;;21.95;23.17
75945;BME280;64628;50.104;14.614;2023-03-23T10:27:50;97955.93;;;21.37;23.76
75945;BME280;64628;50.104;14.614;2023-03-23T10:30:17;97954.04;;;20.81;23.88
75945;BME280;64628;50.104;14.614;2023-03-23T10:32:40;97950.74;;;20.84;23.76
75945;BME280;64628;50.104;14.614;2023-03-23T10:35:05;97950.02;;;20.58;24.25
75945;BME280;64628;50.104;14.614;2023-03-23T10:37:29;97950.79;;;20.85;24.30
75945;BME280;64628;50.104;14.614;2023-03-23T10:39:54;97949.19;;;20.28;24.12
75945;BME280;64628;50.104;14.614;2023-03-23T10:42:24;97948.90;;;20.74;24.09
75945;BME280;64628;50.104;14.614;2023-03-23T10:44:41;97943.77;;;19.74;24.52
75945;BME280;64628;50.104;14.614;2023-03-23T10:47:08;97948.48;;;20.50;24.14
75945;BME280;64628;50.104;14.614;2023-03-23T10:49:39;97942.91;;;20.98;23.71
75945;BME280;64628;50.104;14.614;2023-03-23T10:52:01;97950.88;;;21.08;23.23
75945;BME280;64628;50.104;14.614;2023-03-23T10:54:27;97951.10;;;21.10;23.27
75945;BME280;64628;50.104;14.614;2023-03-23T10:56:47;97950.34;;;20.80;23.48
75945;BME280;64628;50.104;14.614;2023-03-23T10:59:14;97951.55;;;20.20;23.99
75945;BME280;64628;50.104;14.614;2023-03-23T11:01:37;97947.30;;;20.47;24.01
75945;BME280;64628;50.104;14.614;2023-03-23T11:04:03;97941.65;;;20.64;23.90
75945;BME280;64628;50.104;14.614;2023-03-23T11:06:29;97947.16;;;20.60;24.01
75945;BME280;64628;50.104;14.614;2023-03-23T11:08:54;97953.81;;;19.57;24.92
75945;BME280;64628;50.104;14.614;2023-03-23T11:11:19;97953.57;;;20.06;24.60
75945;BME280;64628;50.104;14.614;2023-03-23T11:13:44;97973.42;;;19.91;24.77
75945;BME280;64628;50.104;14.614;2023-03-23T11:16:08;97974.65;;;19.07;25.58
75945;BME280;64628;50.104;14.614;2023-03-23T11:18:36;97974.34;;;19.56;25.30
75945;BME280;64628;50.104;14.614;2023-03-23T11:20:58;97960.64;;;19.87;25.00
75945;BME280;64628;50.104;14.614;2023-03-23T11:23:24;97967.56;;;19.78;24.74
75945;BME280;64628;50.104;14.614;2023-03-23T11:25:55;97966.79;;;20.47;24.45
75945;BME280;64628;50.104;14.614;2023-03-23T11:28:13;97966.65;;;20.55;24.27
75945;BME280;64628;50.104;14.614;2023-03-23T11:30:38;97968.41;;;21.06;23.88
75945;BME280;64628;50.104;14.614;2023-03-23T11:33:03;97965.70;;;20.87;23.93
75945;BME280;64628;50.104;14.614;2023-03-23T11:35:28;97967.69;;;20.92;23.93
75945;BME280;64628;50.104;14.614;2023-03-23T11:37:54;97966.19;;;21.55;23.73
75945;BME280;64628;50.104;14.614;2023-03-23T11:40:20;97957.21;;;21.98;23.23
75945;BME280;64628;50.104;14.614;2023-03-23T11:42:45;97960.75;;;22.23;22.84
75945;BME280;64628;50.104;14.614;2023-03-23T11:45:14;97956.86;;;22.13;22.76
75945;BME280;64628;50.104;14.614;2023-03-23T11:47:37;97959.25;;;22.56;22.37
75945;BME280;64628;50.104;14.614;2023-03-23T11:50:04;97954.66;;;22.45;22.23
75945;BME280;64628;50.104;14.614;2023-03-23T11:52:29;97966.92;;;21.57;23.18
75945;BME280;64628;50.104;14.614;2023-03-23T11:54:54;97954.62;;;21.00;23.65
75945;BME280;64628;50.104;14.614;2023-03-23T11:57:14;97958.59;;;20.91;23.92
75945;BME280;64628;50.104;14.614;2023-03-23T11:59:39;97950.74;;;20.56;24.32
75945;BME280;64628;50.104;14.614;2023-03-23T12:04:40;97951.69;;;21.53;23.24
75945;BME280;64628;50.104;14.614;2023-03-23T12:07:00;97947.64;;;21.68;23.44
75945;BME280;64628;50.104;14.614;2023-03-23T12:09:30;97946.60;;;21.42;23.39
75945;BME280;64628;50.104;14.614;2023-03-23T12:11:53;97952.16;;;21.67;23.25
75945;BME280;64628;50.104;14.614;2023-03-23T12:14:16;97951.97;;;21.31;23.62
75945;BME280;64628;50.104;14.614;2023-03-23T12:16:45;97943.82;;;21.29;23.65
75945;BME280;64628;50.104;14.614;2023-03-23T12:19:06;97944.04;;;21.37;23.56
75945;BME280;64628;50.104;14.614;2023-03-23T12:21:39;97944.53;;;21.91;23.28
75945;BME280;64628;50.104;14.614;2023-03-23T12:23:56;97953.64;;;21.41;23.37
75945;BME280;64628;50.104;14.614;2023-03-23T12:26:21;97947.27;;;21.62;23.69
75945;BME280;64628;50.104;14.614;2023-03-23T12:28:50;97942.08;;;21.29;23.66
75945;BME280;64628;50.104;14.614;2023-03-23T12:31:11;97942.69;;;21.67;23.51
75945;BME280;64628;50.104;14.614;2023-03-23T12:33:39;97948.13;;;21.53;23.54
75945;BME280;64628;50.104;14.614;2023-03-23T12:36:04;97947.37;;;21.43;23.57
75945;BME280;64628;50.104;14.614;2023-03-23T12:38:31;97948.18;;;21.58;23.54
75945;BME280;64628;50.104;14.614;2023-03-23T12:40:53;97945.99;;;21.20;23.95
75945;BME280;64628;50.104;14.614;2023-03-23T12:43:19;97946.42;;;21.31;23.98
75945;BME280;64628;50.104;14.614;2023-03-23T12:45:53;97944.86;;;21.42;23.78
75945;BME280;64628;50.104;14.614;2023-03-23T12:48:03;97939.52;;;21.75;23.72
75945;BME280;64628;50.104;14.614;2023-03-23T12:50:30;97942.34;;;21.36;23.96
75945;BME280;64628;50.104;14.614;2023-03-23T12:52:56;97938.33;;;20.85;24.45